Time;durP1;ratioP1;P1;durP2;ratioP2;P2;SDS_P1;SDS_P2;PMS_P1;PMS_P2;Temp;Humidity;BMP_temperature;BMP_pressure;BME280_temperature;BME280_humidity;BME280_pressure;Samples;Min_cycle;Max_cycle;Signal;HPM_P1;HPM_P2
2023/09/18 00:01:01;;;;;;;15.50;14.10;;;;;;;18.73;100.00;100410.22;5350390;27;20099;-80
2023/09/18 00:03:32;;;;;;;14.80;13.40;;;;;;;18.76;100.00;100402.97;5369425;27;20520;-80
2023/09/18 00:06:03;;;;;;;15.10;13.80;;;;;;;18.72;100.00;100396.16;5353934;27;20038;-80
2023/09/18 00:08:35;;;;;;;17.53;14.90;;;;;;;18.72;100.00;100401.44;5376812;27;20549;-79
2023/09/18 00:11:07;;;;;;;15.57;14.00;;;;;;;18.69;100.00;100404.25;5381269;27;20034;-80
2023/09/18 00:13:38;;;;;;;15.43;13.98;;;;;;;18.68;100.00;100393.78;5375959;27;20030;-81
2023/09/18 00:16:10;;;;;;;14.77;13.27;;;;;;;18.67;100.00;100390.25;5369265;27;20034;-80
2023/09/18 00:18:42;;;;;;;14.95;13.30;;;;;;;18.69;100.00;100392.81;5370448;27;20023;-80
2023/09/18 00:21:13;;;;;;;14.88;12.93;;;;;;;18.69;100.00;100383.13;5370580;27;20033;-80
2023/09/18 00:23:46;;;;;;;15.00;13.30;;;;;;;18.70;100.00;100381.34;5370187;27;20031;-80
2023/09/18 00:26:17;;;;;;;14.65;12.50;;;;;;;18.66;100.00;100370.09;5369754;27;20023;-81
2023/09/18 00:28:49;;;;;;;14.03;12.70;;;;;;;18.67;100.00;100366.50;5368636;27;20126;-80
2023/09/18 00:31:20;;;;;;;13.87;12.57;;;;;;;18.68;100.00;100359.44;5368787;27;20466;-80
2023/09/18 00:33:51;;;;;;;15.10;12.03;;;;;;;18.66;100.00;100356.00;5369312;27;20577;-80
2023/09/18 00:36:23;;;;;;;14.43;12.93;;;;;;;18.66;100.00;100345.44;5369522;27;20385;-81
2023/09/18 00:38:54;;;;;;;13.07;11.77;;;;;;;18.64;100.00;100342.91;5369964;27;20035;-80
2023/09/18 00:41:26;;;;;;;12.67;11.30;;;;;;;18.66;100.00;100337.53;5368660;27;20105;-80
2023/09/18 00:43:57;;;;;;;12.23;11.03;;;;;;;18.64;100.00;100327.06;5369189;27;20050;-80
2023/09/18 00:46:28;;;;;;;11.70;10.63;;;;;;;18.64;100.00;100329.69;5367234;27;20066;-79
2023/09/18 00:49:00;;;;;;;16.63;12.33;;;;;;;18.67;100.00;100328.69;5374104;27;20035;-78
2023/09/18 00:51:32;;;;;;;12.00;10.90;;;;;;;18.70;100.00;100325.88;5375247;27;20047;-79
2023/09/18 00:54:04;;;;;;;13.18;11.85;;;;;;;18.64;100.00;100316.50;5384353;27;20059;-78
2023/09/18 00:56:35;;;;;;;11.68;10.57;;;;;;;18.67;100.00;100326.91;5377736;27;20031;-78
2023/09/18 00:59:08;;;;;;;12.63;11.50;;;;;;;18.67;100.00;100318.13;5378185;27;20026;-80
2023/09/18 01:01:41;;;;;;;11.43;10.23;;;;;;;18.66;100.00;100305.84;5377936;27;20031;-79
2023/09/18 01:04:13;;;;;;;12.60;11.27;;;;;;;18.69;100.00;100308.34;5382510;27;20477;-78
2023/09/18 01:06:45;;;;;;;14.45;10.75;;;;;;;18.74;100.00;100293.09;5376692;27;20151;-79
2023/09/18 01:09:18;;;;;;;12.07;10.65;;;;;;;18.71;100.00;100291.47;5371872;27;20487;-79
2023/09/18 01:12:05;;;;;;;13.52;10.98;;;;;;;18.73;100.00;100286.97;5371186;27;20038;-79
2023/09/18 01:15:06;;;;;;;12.05;10.00;;;;;;;18.71;100.00;100280.09;5372714;27;20030;-80
2023/09/18 01:17:38;;;;;;;11.18;10.00;;;;;;;18.73;100.00;100265.00;5369991;27;20023;-78
2023/09/18 01:20:11;;;;;;;12.00;9.63;;;;;;;18.72;100.00;100260.66;5371504;27;20031;-79
2023/09/18 01:22:43;;;;;;;13.00;10.10;;;;;;;18.76;100.00;100264.84;5372371;27;20038;-79
2023/09/18 01:25:14;;;;;;;11.75;9.73;;;;;;;18.76;100.00;100264.84;5371985;27;20086;-79
2023/09/18 01:27:46;;;;;;;12.60;9.97;;;;;;;18.76;100.00;100270.97;5373085;27;20037;-79
2023/09/18 01:30:18;;;;;;;10.33;8.90;;;;;;;18.78;100.00;100258.50;5373316;27;20023;-78
2023/09/18 01:32:50;;;;;;;11.43;8.95;;;;;;;18.80;100.00;100258.44;5377675;27;20031;-79
2023/09/18 01:35:28;;;;;;;11.55;8.85;;;;;;;18.84;100.00;100267.94;5381822;27;20031;-79
2023/09/18 01:38:00;;;;;;;12.65;9.20;;;;;;;18.87;100.00;100266.88;5373536;27;20031;-80
2023/09/18 01:40:32;;;;;;;10.88;8.55;;;;;;;18.85;100.00;100269.66;5371928;27;20038;-78
2023/09/18 01:43:04;;;;;;;13.43;9.30;;;;;;;18.91;100.00;100273.72;5370004;27;20143;-77
2023/09/18 01:45:36;;;;;;;8.97;8.10;;;;;;;18.94;100.00;100274.38;5348942;27;20462;-79
2023/09/18 01:48:07;;;;;;;10.93;8.30;;;;;;;18.97;100.00;100273.38;5348285;27;20034;-79
2023/09/18 01:50:42;;;;;;;16.27;7.60;;;;;;;19.02;100.00;100268.69;5349797;27;20027;-78
2023/09/18 01:53:13;;;;;;;14.85;7.85;;;;;;;19.05;100.00;100270.31;5350156;27;20031;-79
2023/09/18 01:55:45;;;;;;;8.93;7.00;;;;;;;19.05;100.00;100265.88;5332444;27;20382;-78
2023/09/18 01:58:16;;;;;;;15.30;7.83;;;;;;;19.08;100.00;100265.69;5331383;27;20072;-78
2023/09/18 02:00:47;;;;;;;11.23;7.73;;;;;;;19.09;100.00;100267.41;5350872;27;20027;-79
2023/09/18 02:03:20;;;;;;;11.80;6.50;;;;;;;19.12;100.00;100261.09;5350511;27;20042;-78
2023/09/18 02:05:51;;;;;;;11.50;7.20;;;;;;;19.12;100.00;100261.09;5350007;27;20114;-79
2023/09/18 02:08:23;;;;;;;11.50;6.53;;;;;;;19.17;100.00;100259.03;5331684;27;20571;-79
2023/09/18 02:10:54;;;;;;;12.83;6.70;;;;;;;19.17;100.00;100256.38;5349380;27;20032;-80
2023/09/18 02:13:26;;;;;;;8.87;6.70;;;;;;;19.21;100.00;100257.94;5349158;27;20814;-79
2023/09/18 02:15:57;;;;;;;13.20;6.93;;;;;;;19.25;100.00;100262.06;5329750;27;20387;-79
2023/09/18 02:18:29;;;;;;;11.33;6.90;;;;;;;19.27;100.00;100257.59;5330865;27;20482;-79
2023/09/18 02:21:00;;;;;;;14.33;6.10;;;;;;;19.33;100.00;100255.53;5330332;27;20059;-80
2023/09/18 02:23:31;;;;;;;10.33;6.47;;;;;;;19.31;100.00;100243.22;5349408;27;20038;-79
2023/09/18 02:26:03;;;;;;;10.43;6.27;;;;;;;19.31;100.00;100232.66;5314355;27;20034;-80
2023/09/18 02:28:34;;;;;;;14.20;7.33;;;;;;;19.26;100.00;100225.97;5348486;27;20034;-79
2023/09/18 02:31:05;;;;;;;11.87;6.37;;;;;;;19.23;100.00;100221.69;5313246;27;20514;-77
2023/09/18 02:33:37;;;;;;;11.37;6.33;;;;;;;19.22;100.00;100214.69;5347321;27;20058;-77
2023/09/18 02:36:09;;;;;;;15.27;6.22;;;;;;;19.19;100.00;100206.09;5330047;27;20472;-78
2023/09/18 02:38:40;;;;;;;12.20;7.07;;;;;;;19.15;100.00;100201.94;5348707;27;20035;-77
2023/09/18 02:41:11;;;;;;;11.63;6.60;;;;;;;19.17;100.00;100208.81;5366511;27;20058;-78
2023/09/18 02:43:43;;;;;;;11.37;6.40;;;;;;;19.17;100.00;100203.53;5370655;27;20022;-79
2023/09/18 02:46:14;;;;;;;11.93;6.50;;;;;;;19.18;100.00;100196.50;5368903;27;20105;-80
2023/09/18 02:48:46;;;;;;;12.20;7.10;;;;;;;19.16;100.00;100191.28;5370710;27;20113;-79
2023/09/18 02:51:17;;;;;;;11.13;6.60;;;;;;;19.15;100.00;100189.59;5370972;27;20031;-80
2023/09/18 02:53:49;;;;;;;12.10;5.70;;;;;;;19.19;100.00;100185.84;5373658;27;20041;-79
2023/09/18 02:56:21;;;;;;;14.57;6.10;;;;;;;19.31;100.00;100190.38;5375387;27;20023;-78
2023/09/18 02:58:52;;;;;;;10.57;5.18;;;;;;;19.46;100.00;100187.78;5376497;27;20037;-79
2023/09/18 03:01:24;;;;;;;13.10;6.23;;;;;;;19.48;100.00;100177.94;5373613;27;20038;-79
2023/09/18 03:03:56;;;;;;;14.40;5.50;;;;;;;19.54;100.00;100159.09;5373184;27;20026;-81
2023/09/18 03:06:27;;;;;;;12.50;5.57;;;;;;;19.63;100.00;100163.00;5371463;27;20472;-80
2023/09/18 03:08:58;;;;;;;14.87;6.33;;;;;;;19.61;100.00;100152.50;5370055;27;20094;-80
2023/09/18 03:11:30;;;;;;;11.07;5.83;;;;;;;19.62;100.00;100151.53;5368652;27;20033;-78
2023/09/18 03:14:01;;;;;;;15.30;6.57;;;;;;;19.61;100.00;100149.84;5370899;27;20022;-80
2023/09/18 03:16:33;;;;;;;11.43;5.73;;;;;;;19.65;100.00;100161.09;5368922;27;20042;-80
2023/09/18 03:19:04;;;;;;;13.13;6.40;;;;;;;19.62;100.00;100137.47;5369722;27;20037;-80
2023/09/18 03:21:36;;;;;;;10.17;5.80;;;;;;;19.61;100.00;100147.22;5370467;27;20031;-79
2023/09/18 03:24:08;;;;;;;11.83;6.50;;;;;;;19.60;100.00;100166.66;5369017;27;20117;-79
2023/09/18 03:26:39;;;;;;;12.52;5.85;;;;;;;19.63;100.00;100160.34;5370038;27;20037;-79
2023/09/18 03:29:10;;;;;;;10.90;5.53;;;;;;;19.59;100.00;100154.38;5369318;27;20038;-79
2023/09/18 03:31:42;;;;;;;9.53;5.43;;;;;;;19.59;100.00;100161.47;5368509;27;20043;-78
2023/09/18 03:34:13;;;;;;;16.57;7.47;;;;;;;19.57;100.00;100176.56;5369062;27;20038;-78
2023/09/18 03:36:44;;;;;;;14.73;6.00;;;;;;;19.59;100.00;100170.22;5369624;27;20027;-79
2023/09/18 03:39:16;;;;;;;14.80;6.27;;;;;;;19.54;100.00;100169.66;5369503;27;20037;-79
2023/09/18 03:41:47;;;;;;;10.87;7.33;;;;;;;19.54;100.00;100174.09;5369728;27;20054;-80
2023/09/18 03:44:19;;;;;;;16.43;7.00;;;;;;;19.52;100.00;100160.97;5351629;27;20030;-79
2023/09/18 03:46:50;;;;;;;10.10;6.10;;;;;;;19.53;100.00;100175.91;5369612;27;20054;-79
2023/09/18 03:49:21;;;;;;;13.67;6.50;;;;;;;19.53;100.00;100190.91;5351337;27;20050;-80
2023/09/18 03:51:53;;;;;;;9.30;5.93;;;;;;;19.48;100.00;100178.81;5370261;27;20430;-79
2023/09/18 03:54:24;;;;;;;9.90;6.63;;;;;;;19.42;100.00;100160.69;5369944;27;20043;-79
2023/09/18 03:56:56;;;;;;;14.30;6.70;;;;;;;19.37;100.00;100164.53;5367860;27;20027;-79
2023/09/18 03:59:27;;;;;;;12.97;7.00;;;;;;;19.29;100.00;100155.28;5369564;27;20095;-79
2023/09/18 04:01:58;;;;;;;12.40;7.40;;;;;;;19.31;100.00;100171.03;5369269;27;20035;-79
2023/09/18 04:04:30;;;;;;;10.67;7.47;;;;;;;19.29;100.00;100183.50;5368912;27;20534;-82
2023/09/18 04:07:05;;;;;;;10.73;7.30;;;;;;;19.28;100.00;100185.28;5369974;27;20085;-80
2023/09/18 04:09:37;;;;;;;12.20;7.70;;;;;;;19.26;100.00;100191.59;5368561;27;20034;-81
2023/09/18 04:12:09;;;;;;;13.65;7.43;;;;;;;19.27;100.00;100190.66;5368516;27;20064;-80
2023/09/18 04:14:41;;;;;;;11.68;7.45;;;;;;;19.21;100.00;100183.94;5369111;27;20034;-78
2023/09/18 04:17:12;;;;;;;13.83;8.37;;;;;;;19.18;100.00;100173.56;5369810;27;20042;-79
2023/09/18 04:19:44;;;;;;;10.80;7.23;;;;;;;19.13;100.00;100172.97;5369185;27;20101;-79
2023/09/18 04:22:15;;;;;;;14.20;8.10;;;;;;;19.09;100.00;100168.81;5351132;27;20038;-78
2023/09/18 04:24:46;;;;;;;13.60;8.20;;;;;;;19.08;100.00;100165.31;5372849;27;20113;-79
2023/09/18 04:27:18;;;;;;;10.93;8.33;;;;;;;19.03;100.00;100140.97;5372694;27;20027;-79
2023/09/18 04:29:50;;;;;;;12.23;8.17;;;;;;;19.01;100.00;100149.91;5373794;27;20485;-79
2023/09/18 04:32:21;;;;;;;12.10;8.75;;;;;;;19.00;100.00;100146.44;5355595;27;20031;-80
2023/09/18 04:34:53;;;;;;;13.20;8.67;;;;;;;18.98;100.00;100137.72;5355503;27;20041;-79
2023/09/18 04:37:24;;;;;;;14.57;9.37;;;;;;;18.98;100.00;100145.66;5373231;27;20038;-81
2023/09/18 04:39:57;;;;;;;11.63;8.60;;;;;;;18.93;100.00;100135.38;5372831;27;20384;-80
2023/09/18 04:42:28;;;;;;;15.43;8.65;;;;;;;18.93;100.00;100114.25;5372227;27;20051;-80
2023/09/18 04:45:00;;;;;;;14.37;8.90;;;;;;;18.90;100.00;100095.06;5374270;27;20065;-78
2023/09/18 04:47:31;;;;;;;11.47;9.07;;;;;;;18.86;100.00;100093.56;5376975;27;20477;-78
2023/09/18 04:50:06;;;;;;;10.87;9.03;;;;;;;18.83;100.00;100088.41;5372628;27;20030;-78
2023/09/18 04:52:37;;;;;;;16.60;9.30;;;;;;;18.79;100.00;100082.47;5372230;27;20034;-79
2023/09/18 04:55:11;;;;;;;13.83;9.53;;;;;;;18.74;100.00;100087.16;5371734;27;20019;-79
2023/09/18 04:57:42;;;;;;;14.63;10.82;;;;;;;18.74;100.00;100090.66;5370910;27;20043;-79
2023/09/18 05:00:13;;;;;;;17.33;10.50;;;;;;;18.72;100.00;100074.06;5372093;27;20057;-79
2023/09/18 05:02:45;;;;;;;14.03;10.50;;;;;;;18.68;100.00;100083.09;5373062;27;20031;-79
2023/09/18 05:05:17;;;;;;;17.10;11.30;;;;;;;18.67;100.00;100077.91;5373587;27;20034;-81
2023/09/18 05:07:49;;;;;;;17.00;10.75;;;;;;;18.68;100.00;100083.09;5373749;27;20038;-81
2023/09/18 05:10:20;;;;;;;11.10;9.03;;;;;;;18.63;100.00;100081.63;5373352;27;20035;-78
2023/09/18 05:12:58;;;;;;;12.77;8.60;;;;;;;18.62;100.00;100091.34;5374372;27;20056;-79
2023/09/18 05:15:30;;;;;;;11.18;7.18;;;;;;;18.60;100.00;100087.97;5375218;27;20030;-80
2023/09/18 05:18:03;;;;;;;8.93;6.78;;;;;;;18.61;100.00;100088.81;5375824;27;20030;-80
2023/09/18 05:20:35;;;;;;;10.07;5.15;;;;;;;18.62;100.00;100103.72;5360608;27;20090;-81
2023/09/18 05:23:06;;;;;;;8.98;5.30;;;;;;;18.62;100.00;100106.34;5378071;27;20030;-81
2023/09/18 05:25:38;;;;;;;6.67;4.87;;;;;;;18.63;100.00;100100.13;5376961;27;20037;-81
2023/09/18 05:28:10;;;;;;;9.43;4.40;;;;;;;18.68;100.00;100119.22;5356680;27;20034;-81
2023/09/18 05:30:42;;;;;;;6.60;3.90;;;;;;;18.70;100.00;100112.03;5358051;27;20458;-80
2023/09/18 05:33:13;;;;;;;6.47;4.27;;;;;;;18.73;100.00;100102.16;5355391;27;20076;-81
2023/09/18 05:35:45;;;;;;;7.53;4.05;;;;;;;18.68;100.00;100092.81;5373970;27;20465;-80
2023/09/18 05:38:17;;;;;;;6.90;3.20;;;;;;;18.73;100.00;100101.31;5374964;27;20023;-80
2023/09/18 05:40:49;;;;;;;;;;;;;;;18.76;100.00;100104.63;5377594;27;20137;-79
2023/09/18 05:43:20;;;;;;;3.80;2.83;;;;;;;18.72;100.00;100100.47;5382545;27;19919;-79
2023/09/18 05:45:52;;;;;;;5.27;3.23;;;;;;;18.69;100.00;100100.66;5380547;27;20038;-79
2023/09/18 05:48:23;;;;;;;4.60;2.78;;;;;;;18.65;100.00;100106.19;5355368;27;20030;-81
2023/09/18 05:50:55;;;;;;;5.77;2.60;;;;;;;18.63;100.00;100111.53;5357230;27;20059;-81
2023/09/18 05:53:26;;;;;;;5.67;2.90;;;;;;;18.64;100.00;100121.16;5375045;27;20034;-81
2023/09/18 05:56:03;;;;;;;6.30;2.87;;;;;;;18.61;100.00;100110.75;5374424;27;20031;-80
2023/09/18 05:58:35;;;;;;;10.18;3.08;;;;;;;18.63;100.00;100137.06;5373848;27;20023;-81
2023/09/18 06:01:07;;;;;;;4.63;2.25;;;;;;;18.65;100.00;100132.59;5375321;27;20035;-81
2023/09/18 06:03:39;;;;;;;3.42;2.30;;;;;;;18.66;100.00;100136.91;5356651;27;20053;-81
2023/09/18 06:06:10;;;;;;;6.07;2.30;;;;;;;18.66;100.00;100136.91;5372779;27;20034;-80
2023/09/18 06:08:42;;;;;;;4.43;2.20;;;;;;;18.65;100.00;100140.50;5374106;27;20035;-80
2023/09/18 06:11:13;;;;;;;3.60;2.23;;;;;;;18.62;100.00;100140.66;5355302;27;20037;-81
2023/09/18 06:13:45;;;;;;;4.53;2.40;;;;;;;18.63;100.00;100151.16;5373732;27;20113;-80
2023/09/18 06:16:16;;;;;;;4.80;1.90;;;;;;;18.56;100.00;100142.72;5373448;27;20031;-81
2023/09/18 06:18:49;;;;;;;3.33;2.20;;;;;;;18.56;100.00;100141.84;5354921;27;20047;-81
2023/09/18 06:21:20;;;;;;;3.63;1.95;;;;;;;18.54;100.00;100141.94;5373469;27;20027;-79
2023/09/18 06:23:52;;;;;;;3.80;2.00;;;;;;;18.53;100.00;100147.31;5373584;27;20041;-79
2023/09/18 06:26:23;;;;;;;3.85;2.25;;;;;;;18.52;100.00;100153.53;5335272;27;20082;-80
2023/09/18 06:28:55;;;;;;;4.47;2.10;;;;;;;18.55;100.00;100156.00;5354199;27;20066;-82
2023/09/18 06:31:26;;;;;;;3.03;1.87;;;;;;;18.56;100.00;100158.56;5373063;27;20050;-81
2023/09/18 06:33:58;;;;;;;4.60;2.13;;;;;;;18.52;100.00;100149.09;5373435;27;20023;-80
2023/09/18 06:36:29;;;;;;;7.77;3.73;;;;;;;18.59;100.00;100152.25;5373139;27;20045;-80
2023/09/18 06:39:00;;;;;;;5.70;2.20;;;;;;;18.63;100.00;100158.19;5372931;27;20508;-81
2023/09/18 06:41:32;;;;;;;5.70;2.50;;;;;;;18.67;100.00;100170.28;5373069;27;20133;-82
2023/09/18 06:44:03;;;;;;;4.77;2.30;;;;;;;18.65;100.00;100169.53;5372420;27;20101;-81
2023/09/18 06:46:35;;;;;;;3.60;2.20;;;;;;;18.68;100.00;100172.00;5371730;27;20492;-81
2023/09/18 06:49:06;;;;;;;3.17;2.00;;;;;;;18.75;100.00;100178.63;5373836;27;20027;-81
2023/09/18 06:51:38;;;;;;;5.63;3.40;;;;;;;18.75;100.00;100181.28;5371222;27;20026;-81
2023/09/18 06:54:10;;;;;;;7.65;2.42;;;;;;;18.75;100.00;100184.75;5372547;27;20264;-81
2023/09/18 06:56:41;;;;;;;5.32;2.13;;;;;;;18.81;100.00;100188.84;5372323;27;20496;-81
2023/09/18 06:59:13;;;;;;;3.00;1.77;;;;;;;18.78;100.00;100202.22;5373707;27;20117;-81
2023/09/18 07:01:44;;;;;;;5.67;2.30;;;;;;;18.82;100.00;100197.59;5373896;27;20027;-82
2023/09/18 07:04:15;;;;;;;5.27;2.13;;;;;;;18.85;100.00;100194.84;5375792;27;20090;-80
2023/09/18 07:06:47;;;;;;;5.13;2.13;;;;;;;18.85;100.00;100185.16;5382679;27;20154;-79
2023/09/18 07:09:19;;;;;;;5.67;2.23;;;;;;;18.85;100.00;100192.19;5380594;27;20033;-82
2023/09/18 07:11:50;;;;;;;4.35;2.45;;;;;;;18.84;100.00;100195.78;5370986;27;20023;-80
2023/09/18 07:14:22;;;;;;;2.60;2.10;;;;;;;18.85;100.00;100205.41;5372697;27;20121;-82
2023/09/18 07:16:53;;;;;;;4.27;2.27;;;;;;;18.87;100.00;100204.38;5371000;27;20046;-81
2023/09/18 07:19:26;;;;;;;3.60;1.97;;;;;;;18.87;100.00;100203.50;5372894;27;20037;-80
2023/09/18 07:21:57;;;;;;;;;;;;;;;18.93;100.00;100204.03;5370050;27;20033;-81
2023/09/18 07:24:28;;;;;;;5.20;2.17;;;;;;;18.93;100.00;100195.25;5371686;27;19911;-81
2023/09/18 07:27:00;;;;;;;5.37;2.40;;;;;;;18.92;100.00;100206.75;5370413;27;20117;-80
2023/09/18 07:29:31;;;;;;;4.77;2.40;;;;;;;19.01;100.00;100206.22;5371186;27;20513;-80
2023/09/18 07:32:03;;;;;;;9.17;1.93;;;;;;;19.06;100.00;100216.53;5371806;27;20027;-80
2023/09/18 07:34:35;;;;;;;6.67;2.60;;;;;;;19.13;100.00;100225.81;5371414;27;20039;-80
2023/09/18 07:37:06;;;;;;;3.85;1.98;;;;;;;19.09;100.00;100219.88;5370699;27;20023;-81
2023/09/18 07:39:42;;;;;;;4.63;2.33;;;;;;;19.06;100.00;100220.03;5373660;27;20485;-82
2023/09/18 07:42:14;;;;;;;5.70;2.70;;;;;;;19.08;100.00;100218.16;5370296;27;20051;-80
2023/09/18 07:44:45;;;;;;;5.85;2.05;;;;;;;19.09;100.00;100229.56;5352701;27;20117;-82
2023/09/18 07:47:17;;;;;;;3.83;1.90;;;;;;;19.19;100.00;100217.53;5352660;27;20125;-79
2023/09/18 07:49:48;;;;;;;3.77;2.40;;;;;;;19.28;100.00;100224.91;5370827;27;20023;-81
2023/09/18 07:52:20;;;;;;;2.27;1.93;;;;;;;19.34;100.00;100226.38;5371310;27;20031;-78
2023/09/18 07:54:51;;;;;;;6.03;2.00;;;;;;;19.31;100.00;100218.59;5337516;27;20282;-80
2023/09/18 07:57:23;;;;;;;4.40;2.73;;;;;;;19.35;100.00;100224.56;5352922;27;20034;-80
2023/09/18 07:59:54;;;;;;;6.70;2.47;;;;;;;19.34;100.00;100214.94;5351084;27;20031;-78
2023/09/18 08:02:28;;;;;;;5.83;2.20;;;;;;;19.31;100.00;100216.81;5371857;27;20026;-81
2023/09/18 08:05:00;;;;;;;5.15;2.38;;;;;;;19.28;100.00;100203.78;5371907;27;20035;-78
2023/09/18 08:07:31;;;;;;;5.35;2.50;;;;;;;19.26;100.00;100216.22;5378565;27;20076;-79
2023/09/18 08:10:08;;;;;;;2.77;2.20;;;;;;;19.24;100.00;100233.09;5370911;27;20075;-81
2023/09/18 08:12:39;;;;;;;5.07;1.85;;;;;;;19.22;100.00;100229.72;5372511;27;20037;-81
2023/09/18 08:15:11;;;;;;;5.73;2.30;;;;;;;19.18;100.00;100228.19;5370576;27;20109;-79
2023/09/18 08:17:42;;;;;;;5.27;2.40;;;;;;;19.12;100.00;100222.31;5372851;27;20069;-79
2023/09/18 08:20:15;;;;;;;6.33;2.50;;;;;;;19.12;100.00;100224.94;5371294;27;20128;-79
2023/09/18 08:22:48;;;;;;;5.35;2.13;;;;;;;19.20;100.00;100236.88;5371594;27;20426;-81
2023/09/18 08:25:19;;;;;;;4.10;2.53;;;;;;;19.23;100.00;100245.47;5371580;27;20578;-80
2023/09/18 08:27:50;;;;;;;6.40;2.30;;;;;;;19.31;100.00;100247.69;5373081;27;20035;-82
2023/09/18 08:30:22;;;;;;;5.77;2.67;;;;;;;19.31;100.00;100245.03;5379589;27;20035;-81
2023/09/18 08:32:53;;;;;;;7.53;2.10;;;;;;;19.49;100.00;100253.69;5374800;27;20023;-80
2023/09/18 08:35:29;;;;;;;5.17;2.30;;;;;;;19.42;99.70;100255.00;5371273;27;20510;-80
2023/09/18 08:38:00;;;;;;;6.80;2.60;;;;;;;19.42;99.54;100271.69;5355012;27;20030;-79
2023/09/18 08:40:34;;;;;;;9.10;2.60;;;;;;;19.45;99.72;100275.97;5371369;27;20026;-80
2023/09/18 08:43:06;;;;;;;6.00;2.17;;;;;;;19.46;99.28;100275.88;5370124;27;20099;-81
2023/09/18 08:45:43;;;;;;;6.30;2.37;;;;;;;19.56;99.85;100275.31;5370792;27;20022;-80
2023/09/18 08:48:15;;;;;;;4.18;2.20;;;;;;;19.71;97.95;100278.88;5371130;27;20106;-80
2023/09/18 08:50:48;;;;;;;5.72;2.47;;;;;;;19.94;97.23;100275.72;5369773;27;20496;-79
2023/09/18 08:53:21;;;;;;;6.55;2.72;;;;;;;20.11;95.88;100274.72;5369990;27;20034;-80
2023/09/18 08:55:58;;;;;;;10.52;2.78;;;;;;;20.16;94.89;100272.63;5369791;27;20042;-81
2023/09/18 08:58:39;;;;;;;5.63;2.10;;;;;;;20.34;94.49;100275.09;5369847;27;20047;-81
2023/09/18 09:01:11;;;;;;;5.78;2.15;;;;;;;20.64;90.38;100272.38;5369806;27;20379;-85
2023/09/18 09:03:45;;;;;;;7.63;2.70;;;;;;;20.83;89.68;100279.97;5370265;27;20477;-83
2023/09/18 09:06:17;;;;;;;5.68;2.35;;;;;;;20.89;87.68;100270.78;5370001;27;20037;-81
2023/09/18 09:08:49;;;;;;;3.67;2.30;;;;;;;21.40;86.77;100271.00;5353740;27;20121;-80
2023/09/18 09:11:21;;;;;;;8.38;3.10;;;;;;;21.75;84.08;100282.88;5359963;27;20113;-82
2023/09/18 09:14:17;;;;;;;7.80;2.47;;;;;;;22.14;84.50;100273.16;5374104;27;20117;-81
2023/09/18 09:16:50;;;;;;;4.30;2.50;;;;;;;22.01;82.09;100276.66;5374625;27;20023;-81
2023/09/18 09:19:34;;;;;;;7.57;2.30;;;;;;;22.12;83.24;100283.00;5354363;27;20041;-82
2023/09/18 09:22:07;;;;;;;5.93;2.53;;;;;;;22.52;80.79;100293.53;5376730;27;20023;-81
2023/09/18 09:24:43;;;;;;;11.25;3.38;;;;;;;22.21;80.90;100288.53;5331279;27;20027;-80
2023/09/18 09:27:18;;;;;;;7.35;2.97;;;;;;;22.22;80.11;100303.50;5374486;27;20397;-81
2023/09/18 09:29:59;;;;;;;7.43;2.58;;;;;;;21.95;81.43;100305.41;5373863;27;20060;-81
2023/09/18 09:32:33;;;;;;;4.37;2.63;;;;;;;21.67;82.05;100301.97;5372698;27;20031;-80
2023/09/18 09:35:07;;;;;;;8.38;2.80;;;;;;;21.77;83.13;100297.75;5371792;27;20063;-80
2023/09/18 09:37:39;;;;;;;6.78;2.50;;;;;;;21.47;82.41;100305.91;5373821;27;20030;-82
2023/09/18 09:40:14;;;;;;;5.82;2.72;;;;;;;21.73;80.91;100304.19;5373861;27;20026;-81
2023/09/18 09:42:46;;;;;;;10.05;2.90;;;;;;;21.72;81.45;100305.16;5373513;27;20497;-79
2023/09/18 09:45:18;;;;;;;8.75;3.25;;;;;;;21.42;82.83;100300.91;5377923;27;20167;-80
2023/09/18 09:47:54;;;;;;;5.57;2.70;;;;;;;21.35;83.28;100299.63;5380190;27;20058;-80
2023/09/18 09:50:25;;;;;;;5.80;2.47;;;;;;;21.59;83.38;100289.22;5385419;27;20030;-79
2023/09/18 09:52:57;;;;;;;5.80;3.30;;;;;;;21.42;82.30;100295.59;5381471;27;20038;-81
2023/09/18 09:55:31;;;;;;;5.03;2.50;;;;;;;21.44;82.90;100283.09;5379027;27;20069;-79
2023/09/18 09:58:05;;;;;;;4.65;2.75;;;;;;;21.30;83.79;100293.78;5372312;27;20033;-79
2023/09/18 10:00:43;;;;;;;6.65;2.75;;;;;;;21.29;83.94;100297.38;5374095;27;20107;-79
2023/09/18 10:03:16;;;;;;;8.88;3.08;;;;;;;21.26;84.55;100295.75;5373269;27;20562;-80
2023/09/18 10:05:51;;;;;;;6.68;2.85;;;;;;;21.52;83.66;100314.44;5376377;27;20074;-83
2023/09/18 10:08:26;;;;;;;6.28;2.33;;;;;;;21.78;82.74;100303.88;5381477;27;20238;-80
2023/09/18 10:11:06;;;;;;;4.53;2.28;;;;;;;22.11;80.04;100321.97;5382218;27;20034;-80
2023/09/18 10:13:55;;;;;;;5.50;2.50;;;;;;;22.63;78.42;100320.16;5376374;27;20484;-82
2023/09/18 10:16:31;;;;;;;4.43;2.33;;;;;;;22.49;79.56;100323.81;5373729;27;20027;-83
2023/09/18 10:19:33;;;;;;;5.88;2.85;;;;;;;22.45;78.02;100322.31;5372529;27;20038;-82
2023/09/18 10:22:12;;;;;;;8.05;2.90;;;;;;;22.24;78.40;100316.66;5373303;27;20385;-82
2023/09/18 10:24:49;;;;;;;5.57;2.67;;;;;;;22.62;78.18;100302.56;5373327;27;20038;-80
2023/09/18 10:27:22;;;;;;;9.52;2.70;;;;;;;23.10;74.70;100315.09;5371826;27;20143;-82
2023/09/18 10:29:55;;;;;;;3.65;2.30;;;;;;;24.16;69.29;100323.13;5371503;27;20030;-82
2023/09/18 10:32:28;;;;;;;5.28;2.40;;;;;;;23.64;70.06;100321.78;5372313;27;20035;-81
2023/09/18 10:35:00;;;;;;;8.15;3.38;;;;;;;23.11;72.76;100322.13;5353486;27;20087;-80
2023/09/18 10:37:32;;;;;;;4.05;2.60;;;;;;;22.58;75.08;100324.97;5370656;27;20026;-80
2023/09/18 10:40:07;;;;;;;6.70;2.42;;;;;;;21.96;77.43;100321.22;5371490;27;20038;-80
2023/09/18 10:42:41;;;;;;;4.45;2.63;;;;;;;21.50;79.36;100321.66;5371224;27;20051;-81
2023/09/18 10:45:13;;;;;;;7.13;2.85;;;;;;;21.51;80.60;100341.06;5372034;27;20041;-82
2023/09/18 10:47:47;;;;;;;9.25;3.35;;;;;;;21.40;80.82;100323.19;5374685;27;20031;-81
2023/09/18 10:50:24;;;;;;;6.38;3.30;;;;;;;21.38;80.90;100325.94;5374363;27;20027;-80
2023/09/18 10:52:59;;;;;;;4.78;2.63;;;;;;;21.63;80.50;100313.72;5354546;27;20065;-82
2023/09/18 10:55:33;;;;;;;6.32;2.97;;;;;;;22.17;79.15;100308.28;5372297;27;20027;-82
2023/09/18 10:58:04;;;;;;;7.15;2.70;;;;;;;22.21;77.00;100308.91;5372156;27;20031;-81
2023/09/18 11:00:36;;;;;;;7.30;2.70;;;;;;;22.48;75.50;100303.53;5372845;27;20031;-81
2023/09/18 11:03:11;;;;;;;6.55;2.95;;;;;;;22.38;74.54;100321.06;5373188;27;20272;-82
2023/09/18 11:05:45;;;;;;;5.22;3.10;;;;;;;22.44;74.77;100304.69;5372987;27;20102;-81
2023/09/18 11:08:28;;;;;;;4.63;2.85;;;;;;;24.12;69.16;100307.53;5373495;27;20034;-83
2023/09/18 11:11:09;;;;;;;7.40;2.80;;;;;;;24.79;64.33;100313.88;5358544;27;20080;-82
2023/09/18 11:13:43;;;;;;;6.03;2.60;;;;;;;25.35;64.00;100299.56;5385164;27;20026;-82
2023/09/18 11:16:27;;;;;;;7.93;3.35;;;;;;;26.67;58.56;100299.00;5390043;27;20026;-84
2023/09/18 11:18:58;;;;;;;8.00;2.92;;;;;;;27.23;55.66;100313.63;5380747;27;20031;-84
2023/09/18 11:21:31;;;;;;;7.65;2.53;;;;;;;27.28;52.60;100315.91;5375869;27;20026;-84
2023/09/18 11:24:10;;;;;;;6.20;2.53;;;;;;;26.33;56.23;100309.13;5375869;27;20039;-81
2023/09/18 11:26:43;;;;;;;6.57;2.85;;;;;;;25.88;56.71;100314.75;5374877;27;20042;-83
2023/09/18 11:29:22;;;;;;;4.93;2.40;;;;;;;25.97;56.80;100308.63;5373163;27;20430;-85
2023/09/18 11:31:56;;;;;;;5.13;2.78;;;;;;;28.07;50.94;100339.03;5373651;27;20030;-85
2023/09/18 11:34:31;;;;;;;7.47;2.33;;;;;;;26.57;53.02;100324.84;5336948;27;20485;-86
2023/09/18 11:37:19;;;;;;;4.00;2.55;;;;;;;26.32;55.50;100318.09;5371390;27;20061;-82
2023/09/18 11:39:51;;;;;;;7.18;3.10;;;;;;;26.84;54.06;100315.38;5375158;27;20113;-85